Terminal Aerodrome Forecast
Issued by NWS

Current Version | Previous Version | Text Only | Print | Product List | Glossary On
Versions: 1 2 3 4 5 6 7 8 9 10 11 12 13 14 15 16 17 18 19 20 21 22 23
000
FTUS44 KOUN 290540
TAFPNC
TAF
KPNC 290540Z 2906/3006 16011KT P6SM SCT250
     FM291200 08006KT P6SM SCT200
     FM292100 10007KT P6SM SCT150 PROB30 3000/3004 4SM -TSRA
      BKN040CB=

USA.gov is the U.S. government's official web portal to all federal, state and local government web resources and services.